sensor_id;sensor_type;location;lat;lon;timestamp;temperature;humidity
11639;DHT22;5875;35.940;126.892;2024-03-06T00:00:00;12.70;99.90
11639;DHT22;5875;35.940;126.892;2024-03-06T00:02:28;12.90;99.90
11639;DHT22;5875;35.940;126.892;2024-03-06T00:04:55;13.30;99.90
11639;DHT22;5875;35.940;126.892;2024-03-06T00:07:22;13.40;99.90
11639;DHT22;5875;35.940;126.892;2024-03-06T00:09:49;13.70;99.90
11639;DHT22;5875;35.940;126.892;2024-03-06T00:12:19;14.20;99.90
11639;DHT22;5875;35.940;126.892;2024-03-06T00:14:52;14.30;99.90
11639;DHT22;5875;35.940;126.892;2024-03-06T00:17:19;14.40;99.90
11639;DHT22;5875;35.940;126.892;2024-03-06T00:19:46;14.70;99.90
11639;DHT22;5875;35.940;126.892;2024-03-06T00:22:13;14.70;99.90
11639;DHT22;5875;35.940;126.892;2024-03-06T00:24:40;15.00;99.90
11639;DHT22;5875;35.940;126.892;2024-03-06T00:27:10;15.20;99.90
11639;DHT22;5875;35.940;126.892;2024-03-06T00:29:37;15.50;99.90
11639;DHT22;5875;35.940;126.892;2024-03-06T00:32:05;15.80;99.90
11639;DHT22;5875;35.940;126.892;2024-03-06T00:34:32;16.00;99.90
11639;DHT22;5875;35.940;126.892;2024-03-06T00:36:59;16.20;99.90
11639;DHT22;5875;35.940;126.892;2024-03-06T00:39:26;16.30;99.90
11639;DHT22;5875;35.940;126.892;2024-03-06T00:41:53;16.30;99.90
11639;DHT22;5875;35.940;126.892;2024-03-06T00:44:20;16.60;99.90
11639;DHT22;5875;35.940;126.892;2024-03-06T00:46:47;16.40;99.90
11639;DHT22;5875;35.940;126.892;2024-03-06T00:49:15;16.70;99.90
11639;DHT22;5875;35.940;126.892;2024-03-06T00:51:42;17.00;99.90
11639;DHT22;5875;35.940;126.892;2024-03-06T00:54:09;17.30;99.90
11639;DHT22;5875;35.940;126.892;2024-03-06T00:56:39;17.10;99.90
11639;DHT22;5875;35.940;126.892;2024-03-06T00:59:06;17.40;99.90
11639;DHT22;5875;35.940;126.892;2024-03-06T01:01:34;17.70;99.90
11639;DHT22;5875;35.940;126.892;2024-03-06T01:04:01;17.90;99.90
11639;DHT22;5875;35.940;126.892;2024-03-06T01:06:31;18.10;99.90
11639;DHT22;5875;35.940;126.892;2024-03-06T01:08:58;18.40;99.90
11639;DHT22;5875;35.940;126.892;2024-03-06T01:11:25;18.50;99.90
11639;DHT22;5875;35.940;126.892;2024-03-06T01:13:53;18.80;99.90
11639;DHT22;5875;35.940;126.892;2024-03-06T01:16:20;19.00;99.90
11639;DHT22;5875;35.940;126.892;2024-03-06T01:18:47;19.20;99.90
11639;DHT22;5875;35.940;126.892;2024-03-06T01:21:15;19.20;99.90
11639;DHT22;5875;35.940;126.892;2024-03-06T01:23:42;19.20;99.90
11639;DHT22;5875;35.940;126.892;2024-03-06T01:26:09;19.60;99.90
11639;DHT22;5875;35.940;126.892;2024-03-06T01:28:37;19.80;99.90
11639;DHT22;5875;35.940;126.892;2024-03-06T01:31:04;19.90;95.50
11639;DHT22;5875;35.940;126.892;2024-03-06T01:33:33;19.90;87.40
11639;DHT22;5875;35.940;126.892;2024-03-06T01:36:00;20.10;77.80
11639;DHT22;5875;35.940;126.892;2024-03-06T01:38:27;20.40;65.00
11639;DHT22;5875;35.940;126.892;2024-03-06T01:40:54;20.30;52.90
11639;DHT22;5875;35.940;126.892;2024-03-06T01:43:24;20.30;48.20
11639;DHT22;5875;35.940;126.892;2024-03-06T01:45:52;20.30;41.60
11639;DHT22;5875;35.940;126.892;2024-03-06T01:48:27;20.00;30.70
11639;DHT22;5875;35.940;126.892;2024-03-06T01:50:57;19.60;26.20
11639;DHT22;5875;35.940;126.892;2024-03-06T01:53:26;19.60;23.60
11639;DHT22;5875;35.940;126.892;2024-03-06T01:55:54;19.70;19.20
11639;DHT22;5875;35.940;126.892;2024-03-06T01:58:21;19.70;15.80
11639;DHT22;5875;35.940;126.892;2024-03-06T02:00:51;19.20;14.30
11639;DHT22;5875;35.940;126.892;2024-03-06T02:03:19;19.10;10.70
11639;DHT22;5875;35.940;126.892;2024-03-06T02:05:48;18.80;11.90
11639;DHT22;5875;35.940;126.892;2024-03-06T02:08:15;19.00;8.50
11639;DHT22;5875;35.940;126.892;2024-03-06T02:10:44;19.30;6.90
11639;DHT22;5875;35.940;126.892;2024-03-06T02:13:12;19.50;5.80
11639;DHT22;5875;35.940;126.892;2024-03-06T02:15:40;19.50;2.70
11639;DHT22;5875;35.940;126.892;2024-03-06T02:18:07;19.80;3.60
11639;DHT22;5875;35.940;126.892;2024-03-06T02:20:35;20.10;1.00
11639;DHT22;5875;35.940;126.892;2024-03-06T02:23:04;20.30;1.00
11639;DHT22;5875;35.940;126.892;2024-03-06T02:25:32;19.90;1.00
11639;DHT22;5875;35.940;126.892;2024-03-06T02:27:59;20.20;1.00
11639;DHT22;5875;35.940;126.892;2024-03-06T02:30:26;20.50;1.00
11639;DHT22;5875;35.940;126.892;2024-03-06T02:32:53;20.30;1.00
11639;DHT22;5875;35.940;126.892;2024-03-06T02:35:20;20.40;1.00
11639;DHT22;5875;35.940;126.892;2024-03-06T02:37:47;20.40;1.00
11639;DHT22;5875;35.940;126.892;2024-03-06T02:40:14;20.20;1.00
11639;DHT22;5875;35.940;126.892;2024-03-06T02:42:41;20.30;1.00
11639;DHT22;5875;35.940;126.892;2024-03-06T02:45:09;20.10;1.00
11639;DHT22;5875;35.940;126.892;2024-03-06T02:47:36;20.10;1.00
11639;DHT22;5875;35.940;126.892;2024-03-06T02:50:03;20.00;1.00
11639;DHT22;5875;35.940;126.892;2024-03-06T02:52:31;20.10;1.00
11639;DHT22;5875;35.940;126.892;2024-03-06T02:55:01;20.30;1.00
11639;DHT22;5875;35.940;126.892;2024-03-06T02:57:31;20.40;1.00
11639;DHT22;5875;35.940;126.892;2024-03-06T03:00:01;20.40;1.00
11639;DHT22;5875;35.940;126.892;2024-03-06T03:02:28;20.30;1.00
11639;DHT22;5875;35.940;126.892;2024-03-06T03:04:55;20.00;1.00
11639;DHT22;5875;35.940;126.892;2024-03-06T03:07:22;20.30;1.00
11639;DHT22;5875;35.940;126.892;2024-03-06T03:09:49;20.70;1.00
11639;DHT22;5875;35.940;126.892;2024-03-06T03:12:17;20.40;1.00
11639;DHT22;5875;35.940;126.892;2024-03-06T03:14:44;20.50;1.00
11639;DHT22;5875;35.940;126.892;2024-03-06T03:17:11;20.40;1.00
11639;DHT22;5875;35.940;126.892;2024-03-06T03:19:39;20.40;1.00
11639;DHT22;5875;35.940;126.892;2024-03-06T03:22:06;20.40;1.00
11639;DHT22;5875;35.940;126.892;2024-03-06T03:24:35;20.40;1.00
11639;DHT22;5875;35.940;126.892;2024-03-06T03:27:03;20.60;1.00
11639;DHT22;5875;35.940;126.892;2024-03-06T03:29:30;20.40;1.00
11639;DHT22;5875;35.940;126.892;2024-03-06T03:31:57;20.20;1.00
11639;DHT22;5875;35.940;126.892;2024-03-06T03:34:24;20.10;1.00
11639;DHT22;5875;35.940;126.892;2024-03-06T03:36:51;20.30;1.00
11639;DHT22;5875;35.940;126.892;2024-03-06T03:39:21;20.20;1.00
11639;DHT22;5875;35.940;126.892;2024-03-06T03:41:51;20.10;1.00
11639;DHT22;5875;35.940;126.892;2024-03-06T03:44:18;20.00;1.00
11639;DHT22;5875;35.940;126.892;2024-03-06T03:46:46;19.80;1.00
11639;DHT22;5875;35.940;126.892;2024-03-06T03:49:13;20.00;1.00
11639;DHT22;5875;35.940;126.892;2024-03-06T03:51:40;19.80;1.00
11639;DHT22;5875;35.940;126.892;2024-03-06T03:54:10;20.00;1.00
11639;DHT22;5875;35.940;126.892;2024-03-06T03:56:40;20.20;1.00
11639;DHT22;5875;35.940;126.892;2024-03-06T03:59:07;20.40;1.00
11639;DHT22;5875;35.940;126.892;2024-03-06T04:01:34;20.30;1.00
11639;DHT22;5875;35.940;126.892;2024-03-06T04:04:04;20.30;1.00
11639;DHT22;5875;35.940;126.892;2024-03-06T04:06:31;20.30;1.00
11639;DHT22;5875;35.940;126.892;2024-03-06T04:08:58;20.20;1.00
11639;DHT22;5875;35.940;126.892;2024-03-06T04:11:25;20.40;1.00
11639;DHT22;5875;35.940;126.892;2024-03-06T04:13:52;20.50;1.00
11639;DHT22;5875;35.940;126.892;2024-03-06T04:16:19;20.50;1.00
11639;DHT22;5875;35.940;126.892;2024-03-06T04:18:47;20.40;1.00
11639;DHT22;5875;35.940;126.892;2024-03-06T04:21:14;19.90;1.00
11639;DHT22;5875;35.940;126.892;2024-03-06T04:23:41;19.70;1.00
11639;DHT22;5875;35.940;126.892;2024-03-06T04:26:14;19.80;1.00
11639;DHT22;5875;35.940;126.892;2024-03-06T04:28:42;19.90;1.00
11639;DHT22;5875;35.940;126.892;2024-03-06T04:31:09;20.00;1.00
11639;DHT22;5875;35.940;126.892;2024-03-06T04:33:37;19.80;1.00
11639;DHT22;5875;35.940;126.892;2024-03-06T04:36:04;19.50;1.00
11639;DHT22;5875;35.940;126.892;2024-03-06T04:38:35;19.10;1.00
11639;DHT22;5875;35.940;126.892;2024-03-06T04:41:02;18.70;1.00
11639;DHT22;5875;35.940;126.892;2024-03-06T04:43:29;18.40;1.00
11639;DHT22;5875;35.940;126.892;2024-03-06T04:45:59;18.70;1.00
11639;DHT22;5875;35.940;126.892;2024-03-06T04:48:26;18.50;1.00
11639;DHT22;5875;35.940;126.892;2024-03-06T04:50:53;18.50;1.00
11639;DHT22;5875;35.940;126.892;2024-03-06T04:53:20;18.40;1.00
11639;DHT22;5875;35.940;126.892;2024-03-06T04:55:51;18.50;1.00
11639;DHT22;5875;35.940;126.892;2024-03-06T04:58:18;18.60;1.00
11639;DHT22;5875;35.940;126.892;2024-03-06T05:00:46;18.50;1.00
11639;DHT22;5875;35.940;126.892;2024-03-06T05:03:13;18.00;1.00
11639;DHT22;5875;35.940;126.892;2024-03-06T05:05:44;18.00;1.00
11639;DHT22;5875;35.940;126.892;2024-03-06T05:08:14;17.90;1.00
11639;DHT22;5875;35.940;126.892;2024-03-06T05:10:41;17.90;1.00
11639;DHT22;5875;35.940;126.892;2024-03-06T05:13:08;18.20;1.00
11639;DHT22;5875;35.940;126.892;2024-03-06T05:15:35;18.30;1.00
11639;DHT22;5875;35.940;126.892;2024-03-06T05:18:09;18.30;1.00
11639;DHT22;5875;35.940;126.892;2024-03-06T05:20:36;18.40;1.00
11639;DHT22;5875;35.940;126.892;2024-03-06T05:23:04;18.60;1.00
11639;DHT22;5875;35.940;126.892;2024-03-06T05:25:31;18.60;1.00
11639;DHT22;5875;35.940;126.892;2024-03-06T05:27:58;18.70;1.00
11639;DHT22;5875;35.940;126.892;2024-03-06T05:30:25;18.60;1.00
11639;DHT22;5875;35.940;126.892;2024-03-06T05:32:52;18.60;1.00
11639;DHT22;5875;35.940;126.892;2024-03-06T05:35:22;18.50;1.00
11639;DHT22;5875;35.940;126.892;2024-03-06T05:37:49;18.30;1.00
11639;DHT22;5875;35.940;126.892;2024-03-06T05:40:16;18.20;1.00
11639;DHT22;5875;35.940;126.892;2024-03-06T05:42:43;18.10;1.00
11639;DHT22;5875;35.940;126.892;2024-03-06T05:45:10;18.00;1.00
11639;DHT22;5875;35.940;126.892;2024-03-06T05:47:38;18.00;1.00
11639;DHT22;5875;35.940;126.892;2024-03-06T05:50:07;18.00;1.00
11639;DHT22;5875;35.940;126.892;2024-03-06T05:52:34;17.90;1.00
11639;DHT22;5875;35.940;126.892;2024-03-06T05:55:01;18.00;1.00
11639;DHT22;5875;35.940;126.892;2024-03-06T05:57:32;17.90;1.00
11639;DHT22;5875;35.940;126.892;2024-03-06T05:59:59;17.90;1.00
11639;DHT22;5875;35.940;126.892;2024-03-06T06:02:26;17.70;1.00
11639;DHT22;5875;35.940;126.892;2024-03-06T06:04:54;17.70;1.00
11639;DHT22;5875;35.940;126.892;2024-03-06T06:07:24;17.70;1.00
11639;DHT22;5875;35.940;126.892;2024-03-06T06:09:51;17.50;1.00
11639;DHT22;5875;35.940;126.892;2024-03-06T06:12:19;17.60;1.00
11639;DHT22;5875;35.940;126.892;2024-03-06T06:14:46;17.50;1.00
11639;DHT22;5875;35.940;126.892;2024-03-06T06:17:13;17.70;1.00
11639;DHT22;5875;35.940;126.892;2024-03-06T06:19:45;17.70;1.00
11639;DHT22;5875;35.940;126.892;2024-03-06T06:22:12;17.60;1.00
11639;DHT22;5875;35.940;126.892;2024-03-06T06:24:42;17.50;1.00
11639;DHT22;5875;35.940;126.892;2024-03-06T06:27:09;17.50;1.00
11639;DHT22;5875;35.940;126.892;2024-03-06T06:29:36;17.50;1.00
11639;DHT22;5875;35.940;126.892;2024-03-06T06:32:03;17.40;1.00
11639;DHT22;5875;35.940;126.892;2024-03-06T06:34:33;17.40;1.00
11639;DHT22;5875;35.940;126.892;2024-03-06T06:37:00;17.50;1.00
11639;DHT22;5875;35.940;126.892;2024-03-06T06:39:30;17.40;1.00
11639;DHT22;5875;35.940;126.892;2024-03-06T06:42:00;17.40;1.00
11639;DHT22;5875;35.940;126.892;2024-03-06T06:44:27;17.30;1.00
11639;DHT22;5875;35.940;126.892;2024-03-06T06:46:55;17.30;1.00
11639;DHT22;5875;35.940;126.892;2024-03-06T06:49:22;17.30;1.00
11639;DHT22;5875;35.940;126.892;2024-03-06T06:51:50;17.20;1.00
11639;DHT22;5875;35.940;126.892;2024-03-06T06:54:17;17.30;1.00
11639;DHT22;5875;35.940;126.892;2024-03-06T06:56:44;17.30;1.00
11639;DHT22;5875;35.940;126.892;2024-03-06T06:59:14;17.30;1.00
11639;DHT22;5875;35.940;126.892;2024-03-06T07:01:41;17.20;1.00
11639;DHT22;5875;35.940;126.892;2024-03-06T07:04:08;17.20;1.00
11639;DHT22;5875;35.940;126.892;2024-03-06T07:06:35;17.20;1.00
11639;DHT22;5875;35.940;126.892;2024-03-06T07:09:02;17.10;1.00
11639;DHT22;5875;35.940;126.892;2024-03-06T07:11:31;17.00;1.00
11639;DHT22;5875;35.940;126.892;2024-03-06T07:13:58;17.00;1.00
11639;DHT22;5875;35.940;126.892;2024-03-06T07:16:25;16.80;1.00
11639;DHT22;5875;35.940;126.892;2024-03-06T07:18:55;16.70;1.00
11639;DHT22;5875;35.940;126.892;2024-03-06T07:21:25;16.60;1.00
11639;DHT22;5875;35.940;126.892;2024-03-06T07:23:55;16.60;1.00
11639;DHT22;5875;35.940;126.892;2024-03-06T07:26:22;16.60;1.00
11639;DHT22;5875;35.940;126.892;2024-03-06T07:28:49;16.60;1.00
11639;DHT22;5875;35.940;126.892;2024-03-06T07:31:19;16.50;1.00
11639;DHT22;5875;35.940;126.892;2024-03-06T07:33:46;16.40;1.00
11639;DHT22;5875;35.940;126.892;2024-03-06T07:36:13;16.50;1.00
11639;DHT22;5875;35.940;126.892;2024-03-06T07:38:40;16.40;1.00
11639;DHT22;5875;35.940;126.892;2024-03-06T07:41:08;16.30;1.00
11639;DHT22;5875;35.940;126.892;2024-03-06T07:43:35;16.20;1.00
11639;DHT22;5875;35.940;126.892;2024-03-06T07:46:02;16.10;1.00
11639;DHT22;5875;35.940;126.892;2024-03-06T07:48:29;16.20;1.00
11639;DHT22;5875;35.940;126.892;2024-03-06T07:50:56;16.10;1.00
11639;DHT22;5875;35.940;126.892;2024-03-06T07:53:23;16.10;1.00
11639;DHT22;5875;35.940;126.892;2024-03-06T07:55:50;16.10;1.00
11639;DHT22;5875;35.940;126.892;2024-03-06T07:58:17;15.90;1.00
11639;DHT22;5875;35.940;126.892;2024-03-06T08:00:45;15.80;1.00
11639;DHT22;5875;35.940;126.892;2024-03-06T08:03:18;15.80;1.80
11639;DHT22;5875;35.940;126.892;2024-03-06T08:05:45;15.70;3.60
11639;DHT22;5875;35.940;126.892;2024-03-06T08:08:12;15.60;1.40
11639;DHT22;5875;35.940;126.892;2024-03-06T08:10:39;15.60;3.80
11639;DHT22;5875;35.940;126.892;2024-03-06T08:13:07;15.60;4.00
11639;DHT22;5875;35.940;126.892;2024-03-06T08:15:34;15.40;3.10
11639;DHT22;5875;35.940;126.892;2024-03-06T08:18:01;15.30;5.00
11639;DHT22;5875;35.940;126.892;2024-03-06T08:20:29;15.30;3.80
11639;DHT22;5875;35.940;126.892;2024-03-06T08:23:02;15.20;5.00
11639;DHT22;5875;35.940;126.892;2024-03-06T08:25:29;15.10;5.60
11639;DHT22;5875;35.940;126.892;2024-03-06T08:27:59;15.10;5.50
11639;DHT22;5875;35.940;126.892;2024-03-06T08:30:26;15.10;7.50
11639;DHT22;5875;35.940;126.892;2024-03-06T08:32:53;14.90;8.50
11639;DHT22;5875;35.940;126.892;2024-03-06T08:35:20;14.80;8.30
11639;DHT22;5875;35.940;126.892;2024-03-06T08:37:48;14.70;10.10
11639;DHT22;5875;35.940;126.892;2024-03-06T08:40:17;14.60;10.00
11639;DHT22;5875;35.940;126.892;2024-03-06T08:42:44;14.60;11.00
11639;DHT22;5875;35.940;126.892;2024-03-06T08:45:13;14.40;11.20
11639;DHT22;5875;35.940;126.892;2024-03-06T08:47:46;14.20;11.70
11639;DHT22;5875;35.940;126.892;2024-03-06T08:50:14;14.20;14.10
11639;DHT22;5875;35.940;126.892;2024-03-06T08:52:42;14.20;13.90
11639;DHT22;5875;35.940;126.892;2024-03-06T08:55:10;14.20;15.20
11639;DHT22;5875;35.940;126.892;2024-03-06T08:57:38;14.10;16.10
11639;DHT22;5875;35.940;126.892;2024-03-06T09:00:06;14.00;17.70
11639;DHT22;5875;35.940;126.892;2024-03-06T09:02:37;14.00;19.30
11639;DHT22;5875;35.940;126.892;2024-03-06T09:05:09;13.90;19.90
11639;DHT22;5875;35.940;126.892;2024-03-06T09:07:41;13.80;19.30
11639;DHT22;5875;35.940;126.892;2024-03-06T09:10:10;13.70;21.30
11639;DHT22;5875;35.940;126.892;2024-03-06T09:12:43;13.70;22.50
11639;DHT22;5875;35.940;126.892;2024-03-06T09:15:10;13.60;23.90
11639;DHT22;5875;35.940;126.892;2024-03-06T09:17:38;13.50;24.90
11639;DHT22;5875;35.940;126.892;2024-03-06T09:20:08;13.40;24.50
11639;DHT22;5875;35.940;126.892;2024-03-06T09:22:42;13.30;24.90
11639;DHT22;5875;35.940;126.892;2024-03-06T09:25:09;13.20;27.90
11639;DHT22;5875;35.940;126.892;2024-03-06T09:27:38;13.10;27.10
11639;DHT22;5875;35.940;126.892;2024-03-06T09:30:06;13.10;29.40
11639;DHT22;5875;35.940;126.892;2024-03-06T09:32:35;12.90;28.80
11639;DHT22;5875;35.940;126.892;2024-03-06T09:35:06;12.90;31.40
11639;DHT22;5875;35.940;126.892;2024-03-06T09:37:33;12.90;32.90
11639;DHT22;5875;35.940;126.892;2024-03-06T09:40:00;12.80;34.20
11639;DHT22;5875;35.940;126.892;2024-03-06T09:42:27;12.80;35.90
11639;DHT22;5875;35.940;126.892;2024-03-06T09:44:54;12.80;38.40
11639;DHT22;5875;35.940;126.892;2024-03-06T09:47:22;12.80;37.20
11639;DHT22;5875;35.940;126.892;2024-03-06T09:49:52;12.70;37.70
11639;DHT22;5875;35.940;126.892;2024-03-06T09:52:24;12.60;38.20
11639;DHT22;5875;35.940;126.892;2024-03-06T09:54:57;12.60;37.80
11639;DHT22;5875;35.940;126.892;2024-03-06T09:57:24;12.50;39.70
11639;DHT22;5875;35.940;126.892;2024-03-06T09:59:51;12.40;42.80
11639;DHT22;5875;35.940;126.892;2024-03-06T10:03:07;12.40;44.30
11639;DHT22;5875;35.940;126.892;2024-03-06T10:05:23;12.30;45.30
11639;DHT22;5875;35.940;126.892;2024-03-06T10:07:51;12.30;47.60
11639;DHT22;5875;35.940;126.892;2024-03-06T10:10:21;12.30;48.00
11639;DHT22;5875;35.940;126.892;2024-03-06T10:12:57;12.30;46.80
11639;DHT22;5875;35.940;126.892;2024-03-06T10:15:31;12.20;46.50
11639;DHT22;5875;35.940;126.892;2024-03-06T10:18:15;12.20;48.90
11639;DHT22;5875;35.940;126.892;2024-03-06T10:20:44;12.00;49.10
11639;DHT22;5875;35.940;126.892;2024-03-06T10:23:12;11.90;51.60
11639;DHT22;5875;35.940;126.892;2024-03-06T10:25:42;11.90;53.90
11639;DHT22;5875;35.940;126.892;2024-03-06T10:28:11;11.90;55.50
11639;DHT22;5875;35.940;126.892;2024-03-06T10:30:40;11.80;54.40
11639;DHT22;5875;35.940;126.892;2024-03-06T10:33:13;11.80;56.80
11639;DHT22;5875;35.940;126.892;2024-03-06T10:35:42;11.80;56.60
11639;DHT22;5875;35.940;126.892;2024-03-06T10:38:12;11.80;56.30
11639;DHT22;5875;35.940;126.892;2024-03-06T10:40:42;11.70;57.90
11639;DHT22;5875;35.940;126.892;2024-03-06T10:43:15;11.70;58.70
11639;DHT22;5875;35.940;126.892;2024-03-06T10:46:05;11.60;59.00
11639;DHT22;5875;35.940;126.892;2024-03-06T10:48:34;11.50;59.20
11639;DHT22;5875;35.940;126.892;2024-03-06T10:51:03;11.50;60.70
11639;DHT22;5875;35.940;126.892;2024-03-06T10:53:34;11.50;63.70
11639;DHT22;5875;35.940;126.892;2024-03-06T10:56:04;11.40;65.10
11639;DHT22;5875;35.940;126.892;2024-03-06T10:58:35;11.30;63.40
11639;DHT22;5875;35.940;126.892;2024-03-06T11:01:07;11.10;66.00
11639;DHT22;5875;35.940;126.892;2024-03-06T11:03:38;11.10;68.70
11639;DHT22;5875;35.940;126.892;2024-03-06T11:06:09;11.00;69.90
11639;DHT22;5875;35.940;126.892;2024-03-06T11:08:36;10.90;71.80
11639;DHT22;5875;35.940;126.892;2024-03-06T11:11:25;10.80;71.60
11639;DHT22;5875;35.940;126.892;2024-03-06T11:13:59;10.90;78.40
11639;DHT22;5875;35.940;126.892;2024-03-06T11:16:33;10.60;75.10
11639;DHT22;5875;35.940;126.892;2024-03-06T11:19:19;9.80;84.60
11639;DHT22;5875;35.940;126.892;2024-03-06T11:21:47;9.30;99.90
11639;DHT22;5875;35.940;126.892;2024-03-06T11:26:47;9.00;99.90
11639;DHT22;5875;35.940;126.892;2024-03-06T11:29:17;9.40;99.90
11639;DHT22;5875;35.940;126.892;2024-03-06T11:32:05;9.80;99.90
11639;DHT22;5875;35.940;126.892;2024-03-06T11:34:36;10.00;99.90
11639;DHT22;5875;35.940;126.892;2024-03-06T11:37:07;10.10;99.90
11639;DHT22;5875;35.940;126.892;2024-03-06T11:39:39;10.00;99.90
11639;DHT22;5875;35.940;126.892;2024-03-06T11:42:07;10.00;99.90
11639;DHT22;5875;35.940;126.892;2024-03-06T11:44:35;10.10;99.90
11639;DHT22;5875;35.940;126.892;2024-03-06T11:47:07;10.30;99.90
11639;DHT22;5875;35.940;126.892;2024-03-06T11:49:35;10.30;99.90
11639;DHT22;5875;35.940;126.892;2024-03-06T11:52:06;10.30;99.90
11639;DHT22;5875;35.940;126.892;2024-03-06T11:54:34;10.30;99.90
11639;DHT22;5875;35.940;126.892;2024-03-06T11:57:03;10.20;99.90
11639;DHT22;5875;35.940;126.892;2024-03-06T11:59:33;10.10;99.90
11639;DHT22;5875;35.940;126.892;2024-03-06T12:02:02;10.10;99.90
11639;DHT22;5875;35.940;126.892;2024-03-06T12:04:31;10.00;99.90
11639;DHT22;5875;35.940;126.892;2024-03-06T12:07:05;10.10;99.90
11639;DHT22;5875;35.940;126.892;2024-03-06T12:09:37;10.10;99.90
11639;DHT22;5875;35.940;126.892;2024-03-06T12:12:08;10.00;99.90
11639;DHT22;5875;35.940;126.892;2024-03-06T12:14:36;10.00;99.90
11639;DHT22;5875;35.940;126.892;2024-03-06T12:17:05;9.90;99.90
11639;DHT22;5875;35.940;126.892;2024-03-06T12:19:35;9.90;99.90
11639;DHT22;5875;35.940;126.892;2024-03-06T12:22:06;9.80;99.90
11639;DHT22;5875;35.940;126.892;2024-03-06T12:24:34;9.80;99.90
11639;DHT22;5875;35.940;126.892;2024-03-06T12:27:02;9.80;99.90
11639;DHT22;5875;35.940;126.892;2024-03-06T12:29:34;9.80;99.90
11639;DHT22;5875;35.940;126.892;2024-03-06T12:32:04;9.80;99.90
11639;DHT22;5875;35.940;126.892;2024-03-06T12:34:31;9.80;99.90
11639;DHT22;5875;35.940;126.892;2024-03-06T12:37:11;9.80;99.90
11639;DHT22;5875;35.940;126.892;2024-03-06T12:39:38;9.80;99.90
11639;DHT22;5875;35.940;126.892;2024-03-06T12:42:06;9.80;99.90
11639;DHT22;5875;35.940;126.892;2024-03-06T12:44:33;9.80;99.90
11639;DHT22;5875;35.940;126.892;2024-03-06T12:47:01;9.70;99.90
11639;DHT22;5875;35.940;126.892;2024-03-06T12:49:28;9.80;99.90
11639;DHT22;5875;35.940;126.892;2024-03-06T12:51:55;9.70;99.90
11639;DHT22;5875;35.940;126.892;2024-03-06T12:54:22;9.70;99.90
11639;DHT22;5875;35.940;126.892;2024-03-06T12:56:49;9.60;99.90
11639;DHT22;5875;35.940;126.892;2024-03-06T12:59:16;9.60;99.90
11639;DHT22;5875;35.940;126.892;2024-03-06T13:01:44;9.60;99.90
11639;DHT22;5875;35.940;126.892;2024-03-06T13:04:11;9.60;99.90
11639;DHT22;5875;35.940;126.892;2024-03-06T13:06:38;9.50;99.90
11639;DHT22;5875;35.940;126.892;2024-03-06T13:09:07;9.60;99.90
11639;DHT22;5875;35.940;126.892;2024-03-06T13:11:34;9.50;99.90
11639;DHT22;5875;35.940;126.892;2024-03-06T13:14:06;9.50;99.90
11639;DHT22;5875;35.940;126.892;2024-03-06T13:16:35;9.60;99.90
11639;DHT22;5875;35.940;126.892;2024-03-06T13:19:08;9.50;99.90
11639;DHT22;5875;35.940;126.892;2024-03-06T13:21:37;9.50;99.90
11639;DHT22;5875;35.940;126.892;2024-03-06T13:24:05;9.40;99.90
11639;DHT22;5875;35.940;126.892;2024-03-06T13:26:32;9.50;99.90
11639;DHT22;5875;35.940;126.892;2024-03-06T13:28:59;9.40;99.90
11639;DHT22;5875;35.940;126.892;2024-03-06T13:31:26;9.40;99.90
11639;DHT22;5875;35.940;126.892;2024-03-06T13:34:00;9.40;99.90
11639;DHT22;5875;35.940;126.892;2024-03-06T13:36:30;9.40;99.90
11639;DHT22;5875;35.940;126.892;2024-03-06T13:38:57;9.40;99.90
11639;DHT22;5875;35.940;126.892;2024-03-06T13:41:24;9.40;99.90
11639;DHT22;5875;35.940;126.892;2024-03-06T13:43:51;9.30;99.90
11639;DHT22;5875;35.940;126.892;2024-03-06T13:46:18;9.30;99.90
11639;DHT22;5875;35.940;126.892;2024-03-06T13:48:45;9.30;99.90
11639;DHT22;5875;35.940;126.892;2024-03-06T13:51:12;9.40;99.90
11639;DHT22;5875;35.940;126.892;2024-03-06T13:53:39;9.30;99.90
11639;DHT22;5875;35.940;126.892;2024-03-06T13:56:09;9.20;99.90
11639;DHT22;5875;35.940;126.892;2024-03-06T13:58:36;9.20;99.90
11639;DHT22;5875;35.940;126.892;2024-03-06T14:01:03;9.20;99.90
11639;DHT22;5875;35.940;126.892;2024-03-06T14:03:34;9.20;99.90
11639;DHT22;5875;35.940;126.892;2024-03-06T14:06:04;9.20;99.90
11639;DHT22;5875;35.940;126.892;2024-03-06T14:08:33;9.20;99.90
11639;DHT22;5875;35.940;126.892;2024-03-06T14:11:00;9.30;99.90
11639;DHT22;5875;35.940;126.892;2024-03-06T14:13:30;9.00;99.90
11639;DHT22;5875;35.940;126.892;2024-03-06T14:15:57;9.00;99.90
11639;DHT22;5875;35.940;126.892;2024-03-06T14:18:26;8.90;99.90
11639;DHT22;5875;35.940;126.892;2024-03-06T14:20:53;9.00;99.90
11639;DHT22;5875;35.940;126.892;2024-03-06T14:23:21;8.90;99.90
11639;DHT22;5875;35.940;126.892;2024-03-06T14:25:48;8.80;99.90
11639;DHT22;5875;35.940;126.892;2024-03-06T14:28:15;8.70;99.90
11639;DHT22;5875;35.940;126.892;2024-03-06T14:30:42;8.80;99.90
11639;DHT22;5875;35.940;126.892;2024-03-06T14:33:11;8.80;99.90
11639;DHT22;5875;35.940;126.892;2024-03-06T14:35:38;8.60;99.90
11639;DHT22;5875;35.940;126.892;2024-03-06T14:38:05;8.60;99.90
11639;DHT22;5875;35.940;126.892;2024-03-06T14:40:32;8.60;99.90
11639;DHT22;5875;35.940;126.892;2024-03-06T14:43:00;8.50;99.90
11639;DHT22;5875;35.940;126.892;2024-03-06T14:45:28;8.50;99.90
11639;DHT22;5875;35.940;126.892;2024-03-06T14:47:55;8.40;99.90
11639;DHT22;5875;35.940;126.892;2024-03-06T14:50:22;8.40;99.90
11639;DHT22;5875;35.940;126.892;2024-03-06T14:52:49;8.40;99.90
11639;DHT22;5875;35.940;126.892;2024-03-06T14:55:16;8.30;99.90
11639;DHT22;5875;35.940;126.892;2024-03-06T14:57:43;8.40;99.90
11639;DHT22;5875;35.940;126.892;2024-03-06T15:00:11;8.30;99.90
11639;DHT22;5875;35.940;126.892;2024-03-06T15:02:40;8.30;99.90
11639;DHT22;5875;35.940;126.892;2024-03-06T15:05:07;7.90;99.90
11639;DHT22;5875;35.940;126.892;2024-03-06T15:07:38;7.80;99.90
11639;DHT22;5875;35.940;126.892;2024-03-06T15:10:06;7.30;99.90
11639;DHT22;5875;35.940;126.892;2024-03-06T15:12:37;7.70;99.90
11639;DHT22;5875;35.940;126.892;2024-03-06T15:15:05;7.70;99.90
11639;DHT22;5875;35.940;126.892;2024-03-06T15:17:33;7.80;99.90
11639;DHT22;5875;35.940;126.892;2024-03-06T15:20:00;7.80;99.90
11639;DHT22;5875;35.940;126.892;2024-03-06T15:22:27;7.90;99.90
11639;DHT22;5875;35.940;126.892;2024-03-06T15:24:55;7.90;99.90
11639;DHT22;5875;35.940;126.892;2024-03-06T15:27:25;7.90;99.90
11639;DHT22;5875;35.940;126.892;2024-03-06T15:29:52;7.90;99.90
11639;DHT22;5875;35.940;126.892;2024-03-06T15:32:20;8.00;99.90
11639;DHT22;5875;35.940;126.892;2024-03-06T15:34:48;7.90;99.90